sensor_id;sensor_type;location;lat;lon;timestamp;P1;durP1;ratioP1;P2;durP2;ratioP2
46653;SDS011;38960;51.074;17.004;2022-12-20T00:02:01;26.27;;;15.47;;
46653;SDS011;38960;51.074;17.004;2022-12-20T00:04:27;26.60;;;15.60;;
46653;SDS011;38960;51.074;17.004;2022-12-20T00:06:52;28.47;;;14.87;;
46653;SDS011;38960;51.074;17.004;2022-12-20T00:09:18;26.00;;;14.67;;
46653;SDS011;38960;51.074;17.004;2022-12-20T00:11:43;24.60;;;13.87;;
46653;SDS011;38960;51.074;17.004;2022-12-20T00:14:09;24.00;;;14.37;;
46653;SDS011;38960;51.074;17.004;2022-12-20T00:16:35;24.27;;;14.20;;
46653;SDS011;38960;51.074;17.004;2022-12-20T00:19:01;26.60;;;14.53;;
46653;SDS011;38960;51.074;17.004;2022-12-20T00:21:28;27.63;;;15.50;;
46653;SDS011;38960;51.074;17.004;2022-12-20T00:23:55;26.43;;;15.53;;
46653;SDS011;38960;51.074;17.004;2022-12-20T00:26:22;25.00;;;14.73;;
46653;SDS011;38960;51.074;17.004;2022-12-20T00:28:50;27.43;;;15.57;;
46653;SDS011;38960;51.074;17.004;2022-12-20T00:31:16;30.50;;;16.83;;
46653;SDS011;38960;51.074;17.004;2022-12-20T00:33:44;23.53;;;13.73;;
46653;SDS011;38960;51.074;17.004;2022-12-20T00:36:11;25.57;;;15.90;;
46653;SDS011;38960;51.074;17.004;2022-12-20T00:38:37;26.47;;;14.30;;
46653;SDS011;38960;51.074;17.004;2022-12-20T00:41:04;27.03;;;14.73;;
46653;SDS011;38960;51.074;17.004;2022-12-20T00:43:31;30.03;;;15.83;;
46653;SDS011;38960;51.074;17.004;2022-12-20T00:45:57;24.20;;;15.00;;
46653;SDS011;38960;51.074;17.004;2022-12-20T00:48:24;24.43;;;14.97;;
46653;SDS011;38960;51.074;17.004;2022-12-20T00:50:50;25.97;;;14.67;;
46653;SDS011;38960;51.074;17.004;2022-12-20T00:53:16;30.03;;;15.43;;
46653;SDS011;38960;51.074;17.004;2022-12-20T00:55:42;29.77;;;16.23;;
46653;SDS011;38960;51.074;17.004;2022-12-20T00:58:11;26.47;;;14.83;;
46653;SDS011;38960;51.074;17.004;2022-12-20T01:00:38;25.83;;;15.10;;
46653;SDS011;38960;51.074;17.004;2022-12-20T01:03:04;28.17;;;16.67;;
46653;SDS011;38960;51.074;17.004;2022-12-20T01:05:30;25.67;;;15.70;;
46653;SDS011;38960;51.074;17.004;2022-12-20T01:07:56;27.83;;;16.27;;
46653;SDS011;38960;51.074;17.004;2022-12-20T01:10:21;29.43;;;16.10;;
46653;SDS011;38960;51.074;17.004;2022-12-20T01:12:47;29.47;;;16.13;;
46653;SDS011;38960;51.074;17.004;2022-12-20T01:15:12;27.93;;;15.80;;
46653;SDS011;38960;51.074;17.004;2022-12-20T01:17:38;26.67;;;15.80;;
46653;SDS011;38960;51.074;17.004;2022-12-20T01:20:04;28.33;;;17.07;;
46653;SDS011;38960;51.074;17.004;2022-12-20T01:22:30;28.60;;;16.23;;
46653;SDS011;38960;51.074;17.004;2022-12-20T01:24:56;29.90;;;16.80;;
46653;SDS011;38960;51.074;17.004;2022-12-20T01:27:21;27.77;;;15.83;;
46653;SDS011;38960;51.074;17.004;2022-12-20T01:29:47;25.93;;;15.13;;
46653;SDS011;38960;51.074;17.004;2022-12-20T01:32:12;25.47;;;14.83;;
46653;SDS011;38960;51.074;17.004;2022-12-20T01:34:38;27.67;;;15.47;;
46653;SDS011;38960;51.074;17.004;2022-12-20T01:37:04;26.57;;;15.17;;
46653;SDS011;38960;51.074;17.004;2022-12-20T01:39:29;23.57;;;14.43;;
46653;SDS011;38960;51.074;17.004;2022-12-20T01:41:55;27.40;;;14.73;;
46653;SDS011;38960;51.074;17.004;2022-12-20T01:46:47;27.87;;;16.20;;
46653;SDS011;38960;51.074;17.004;2022-12-20T01:49:16;27.07;;;14.80;;
46653;SDS011;38960;51.074;17.004;2022-12-20T01:54:45;29.30;;;16.23;;
46653;SDS011;38960;51.074;17.004;2022-12-20T01:57:18;26.93;;;14.80;;
46653;SDS011;38960;51.074;17.004;2022-12-20T01:59:47;24.33;;;13.73;;
46653;SDS011;38960;51.074;17.004;2022-12-20T02:02:14;27.10;;;15.43;;
46653;SDS011;38960;51.074;17.004;2022-12-20T02:04:40;24.97;;;15.00;;
46653;SDS011;38960;51.074;17.004;2022-12-20T02:07:05;26.63;;;15.50;;
46653;SDS011;38960;51.074;17.004;2022-12-20T02:09:33;27.10;;;15.67;;
46653;SDS011;38960;51.074;17.004;2022-12-20T02:30:53;24.13;;;14.17;;
46653;SDS011;38960;51.074;17.004;2022-12-20T02:33:21;25.70;;;14.80;;
46653;SDS011;38960;51.074;17.004;2022-12-20T02:35:48;25.80;;;14.63;;
46653;SDS011;38960;51.074;17.004;2022-12-20T02:41:02;27.27;;;14.63;;
46653;SDS011;38960;51.074;17.004;2022-12-20T02:43:31;29.93;;;14.97;;
46653;SDS011;38960;51.074;17.004;2022-12-20T02:46:16;23.80;;;14.03;;
46653;SDS011;38960;51.074;17.004;2022-12-20T02:48:43;29.00;;;15.90;;
46653;SDS011;38960;51.074;17.004;2022-12-20T02:51:11;26.70;;;15.53;;
46653;SDS011;38960;51.074;17.004;2022-12-20T02:53:38;25.67;;;14.67;;
46653;SDS011;38960;51.074;17.004;2022-12-20T02:59:17;25.67;;;15.00;;
46653;SDS011;38960;51.074;17.004;2022-12-20T03:01:55;26.07;;;14.60;;
46653;SDS011;38960;51.074;17.004;2022-12-20T03:04:32;28.57;;;16.07;;
46653;SDS011;38960;51.074;17.004;2022-12-20T03:09:26;23.57;;;14.53;;
46653;SDS011;38960;51.074;17.004;2022-12-20T03:11:52;25.60;;;15.10;;
46653;SDS011;38960;51.074;17.004;2022-12-20T03:14:18;26.73;;;15.70;;
46653;SDS011;38960;51.074;17.004;2022-12-20T03:16:46;25.17;;;15.00;;
46653;SDS011;38960;51.074;17.004;2022-12-20T03:19:12;26.73;;;15.77;;
46653;SDS011;38960;51.074;17.004;2022-12-20T03:21:37;28.03;;;15.57;;
46653;SDS011;38960;51.074;17.004;2022-12-20T03:24:03;27.10;;;14.93;;
46653;SDS011;38960;51.074;17.004;2022-12-20T03:26:29;27.50;;;16.30;;
46653;SDS011;38960;51.074;17.004;2022-12-20T03:28:57;25.83;;;14.67;;
46653;SDS011;38960;51.074;17.004;2022-12-20T03:31:25;24.17;;;14.47;;
46653;SDS011;38960;51.074;17.004;2022-12-20T03:33:53;27.80;;;14.37;;
46653;SDS011;38960;51.074;17.004;2022-12-20T03:36:19;23.90;;;14.73;;
46653;SDS011;38960;51.074;17.004;2022-12-20T03:38:52;22.40;;;14.03;;
46653;SDS011;38960;51.074;17.004;2022-12-20T03:41:21;27.00;;;15.80;;
46653;SDS011;38960;51.074;17.004;2022-12-20T03:43:47;25.67;;;13.90;;
46653;SDS011;38960;51.074;17.004;2022-12-20T03:46:14;27.53;;;14.50;;
46653;SDS011;38960;51.074;17.004;2022-12-20T03:48:40;23.33;;;13.53;;
46653;SDS011;38960;51.074;17.004;2022-12-20T03:51:08;26.47;;;14.43;;
46653;SDS011;38960;51.074;17.004;2022-12-20T03:53:34;26.50;;;14.53;;
46653;SDS011;38960;51.074;17.004;2022-12-20T03:55:59;25.37;;;15.33;;
46653;SDS011;38960;51.074;17.004;2022-12-20T03:58:25;26.50;;;14.60;;
46653;SDS011;38960;51.074;17.004;2022-12-20T04:00:51;27.13;;;14.87;;
46653;SDS011;38960;51.074;17.004;2022-12-20T04:03:39;24.00;;;14.03;;
46653;SDS011;38960;51.074;17.004;2022-12-20T04:06:05;26.63;;;14.97;;
46653;SDS011;38960;51.074;17.004;2022-12-20T04:08:30;25.00;;;14.10;;
46653;SDS011;38960;51.074;17.004;2022-12-20T04:10:56;25.20;;;14.93;;
46653;SDS011;38960;51.074;17.004;2022-12-20T04:13:46;29.97;;;13.93;;
46653;SDS011;38960;51.074;17.004;2022-12-20T04:16:14;29.13;;;15.17;;
46653;SDS011;38960;51.074;17.004;2022-12-20T04:18:41;23.33;;;13.80;;
46653;SDS011;38960;51.074;17.004;2022-12-20T04:21:08;27.87;;;14.30;;
46653;SDS011;38960;51.074;17.004;2022-12-20T04:23:38;29.43;;;15.47;;
46653;SDS011;38960;51.074;17.004;2022-12-20T04:26:05;28.07;;;15.97;;
46653;SDS011;38960;51.074;17.004;2022-12-20T04:28:32;30.90;;;16.53;;
46653;SDS011;38960;51.074;17.004;2022-12-20T04:30:59;28.57;;;16.10;;
46653;SDS011;38960;51.074;17.004;2022-12-20T04:33:27;27.70;;;15.43;;
46653;SDS011;38960;51.074;17.004;2022-12-20T04:35:53;26.70;;;15.50;;
46653;SDS011;38960;51.074;17.004;2022-12-20T04:38:21;30.60;;;16.63;;
46653;SDS011;38960;51.074;17.004;2022-12-20T04:40:48;25.77;;;14.83;;
46653;SDS011;38960;51.074;17.004;2022-12-20T04:43:14;32.27;;;16.27;;
46653;SDS011;38960;51.074;17.004;2022-12-20T04:45:41;30.43;;;17.03;;
46653;SDS011;38960;51.074;17.004;2022-12-20T04:48:09;28.37;;;16.90;;
46653;SDS011;38960;51.074;17.004;2022-12-20T04:50:37;27.93;;;16.23;;
46653;SDS011;38960;51.074;17.004;2022-12-20T04:53:02;28.87;;;16.43;;
46653;SDS011;38960;51.074;17.004;2022-12-20T04:55:49;32.47;;;17.53;;
46653;SDS011;38960;51.074;17.004;2022-12-20T04:58:15;30.37;;;16.33;;
46653;SDS011;38960;51.074;17.004;2022-12-20T05:00:41;34.10;;;17.70;;
46653;SDS011;38960;51.074;17.004;2022-12-20T05:03:22;29.93;;;16.40;;
46653;SDS011;38960;51.074;17.004;2022-12-20T05:05:49;33.07;;;17.17;;
46653;SDS011;38960;51.074;17.004;2022-12-20T05:08:15;29.10;;;17.10;;
46653;SDS011;38960;51.074;17.004;2022-12-20T05:10:41;34.10;;;18.20;;
46653;SDS011;38960;51.074;17.004;2022-12-20T05:13:07;33.33;;;17.77;;
46653;SDS011;38960;51.074;17.004;2022-12-20T05:15:37;29.80;;;16.63;;
46653;SDS011;38960;51.074;17.004;2022-12-20T05:18:04;31.53;;;18.50;;
46653;SDS011;38960;51.074;17.004;2022-12-20T05:20:41;30.80;;;16.97;;
46653;SDS011;38960;51.074;17.004;2022-12-20T05:23:09;32.43;;;17.60;;
46653;SDS011;38960;51.074;17.004;2022-12-20T05:26:03;30.20;;;16.67;;
46653;SDS011;38960;51.074;17.004;2022-12-20T05:28:45;33.00;;;16.60;;
46653;SDS011;38960;51.074;17.004;2022-12-20T05:31:11;30.03;;;17.97;;
46653;SDS011;38960;51.074;17.004;2022-12-20T05:33:37;34.67;;;19.00;;
46653;SDS011;38960;51.074;17.004;2022-12-20T05:36:04;33.47;;;18.43;;
46653;SDS011;38960;51.074;17.004;2022-12-20T05:38:30;33.87;;;17.83;;
46653;SDS011;38960;51.074;17.004;2022-12-20T05:40:56;31.87;;;17.90;;
46653;SDS011;38960;51.074;17.004;2022-12-20T05:43:22;31.47;;;17.50;;
46653;SDS011;38960;51.074;17.004;2022-12-20T05:45:48;34.80;;;18.93;;
46653;SDS011;38960;51.074;17.004;2022-12-20T05:48:23;37.90;;;20.10;;
46653;SDS011;38960;51.074;17.004;2022-12-20T05:50:48;33.73;;;18.43;;
46653;SDS011;38960;51.074;17.004;2022-12-20T05:53:24;33.63;;;19.00;;
46653;SDS011;38960;51.074;17.004;2022-12-20T05:55:53;34.40;;;19.67;;
46653;SDS011;38960;51.074;17.004;2022-12-20T05:58:23;37.17;;;19.83;;
46653;SDS011;38960;51.074;17.004;2022-12-20T06:00:54;37.53;;;20.13;;
46653;SDS011;38960;51.074;17.004;2022-12-20T06:03:20;31.90;;;18.27;;
46653;SDS011;38960;51.074;17.004;2022-12-20T06:05:46;37.67;;;19.13;;
46653;SDS011;38960;51.074;17.004;2022-12-20T06:08:18;36.05;;;19.02;;
46653;SDS011;38960;51.074;17.004;2022-12-20T06:10:46;32.27;;;17.97;;
46653;SDS011;38960;51.074;17.004;2022-12-20T06:13:15;38.10;;;19.43;;
46653;SDS011;38960;51.074;17.004;2022-12-20T06:15:42;36.60;;;19.20;;
46653;SDS011;38960;51.074;17.004;2022-12-20T06:18:07;38.50;;;19.23;;
46653;SDS011;38960;51.074;17.004;2022-12-20T06:20:34;32.70;;;19.13;;
46653;SDS011;38960;51.074;17.004;2022-12-20T06:23:02;32.97;;;18.37;;
46653;SDS011;38960;51.074;17.004;2022-12-20T06:25:34;32.53;;;18.57;;
46653;SDS011;38960;51.074;17.004;2022-12-20T06:28:00;34.30;;;18.20;;
46653;SDS011;38960;51.074;17.004;2022-12-20T06:30:26;36.57;;;20.13;;
46653;SDS011;38960;51.074;17.004;2022-12-20T06:33:12;33.90;;;18.07;;
46653;SDS011;38960;51.074;17.004;2022-12-20T06:35:37;37.67;;;19.03;;
46653;SDS011;38960;51.074;17.004;2022-12-20T06:38:04;42.27;;;20.33;;
46653;SDS011;38960;51.074;17.004;2022-12-20T06:40:33;40.20;;;19.97;;
46653;SDS011;38960;51.074;17.004;2022-12-20T06:42:59;34.37;;;18.97;;
46653;SDS011;38960;51.074;17.004;2022-12-20T06:45:25;37.17;;;20.47;;
46653;SDS011;38960;51.074;17.004;2022-12-20T06:47:51;36.13;;;19.00;;
46653;SDS011;38960;51.074;17.004;2022-12-20T06:50:17;38.20;;;21.33;;
46653;SDS011;38960;51.074;17.004;2022-12-20T06:52:43;40.00;;;21.20;;
46653;SDS011;38960;51.074;17.004;2022-12-20T06:55:09;37.97;;;20.43;;
46653;SDS011;38960;51.074;17.004;2022-12-20T06:57:37;38.67;;;20.67;;
46653;SDS011;38960;51.074;17.004;2022-12-20T07:00:03;35.63;;;20.43;;
46653;SDS011;38960;51.074;17.004;2022-12-20T07:02:30;42.27;;;21.80;;
46653;SDS011;38960;51.074;17.004;2022-12-20T07:04:55;37.53;;;19.43;;
46653;SDS011;38960;51.074;17.004;2022-12-20T07:07:21;38.97;;;20.10;;
46653;SDS011;38960;51.074;17.004;2022-12-20T07:09:47;40.67;;;21.83;;
46653;SDS011;38960;51.074;17.004;2022-12-20T07:12:12;41.10;;;22.90;;
46653;SDS011;38960;51.074;17.004;2022-12-20T07:14:38;37.47;;;21.00;;
46653;SDS011;38960;51.074;17.004;2022-12-20T07:17:03;39.67;;;21.83;;
46653;SDS011;38960;51.074;17.004;2022-12-20T07:19:29;39.27;;;19.90;;
46653;SDS011;38960;51.074;17.004;2022-12-20T07:21:55;40.10;;;20.50;;
46653;SDS011;38960;51.074;17.004;2022-12-20T07:24:20;39.93;;;19.70;;
46653;SDS011;38960;51.074;17.004;2022-12-20T07:26:46;33.83;;;18.77;;
46653;SDS011;38960;51.074;17.004;2022-12-20T07:29:12;37.77;;;20.10;;
46653;SDS011;38960;51.074;17.004;2022-12-20T07:31:38;37.30;;;18.50;;
46653;SDS011;38960;51.074;17.004;2022-12-20T07:34:03;35.07;;;18.37;;
46653;SDS011;38960;51.074;17.004;2022-12-20T07:36:29;35.23;;;17.67;;
46653;SDS011;38960;51.074;17.004;2022-12-20T07:38:55;36.60;;;19.70;;
46653;SDS011;38960;51.074;17.004;2022-12-20T07:41:20;36.20;;;21.00;;
46653;SDS011;38960;51.074;17.004;2022-12-20T07:43:46;38.77;;;19.50;;
46653;SDS011;38960;51.074;17.004;2022-12-20T07:46:12;36.47;;;18.63;;
46653;SDS011;38960;51.074;17.004;2022-12-20T07:48:38;35.40;;;19.67;;
46653;SDS011;38960;51.074;17.004;2022-12-20T07:51:08;40.27;;;19.83;;
46653;SDS011;38960;51.074;17.004;2022-12-20T07:53:37;37.03;;;20.37;;
46653;SDS011;38960;51.074;17.004;2022-12-20T07:56:05;37.23;;;19.57;;
46653;SDS011;38960;51.074;17.004;2022-12-20T07:58:32;32.87;;;18.63;;
46653;SDS011;38960;51.074;17.004;2022-12-20T08:00:59;38.17;;;19.87;;
46653;SDS011;38960;51.074;17.004;2022-12-20T08:03:35;35.40;;;18.23;;
46653;SDS011;38960;51.074;17.004;2022-12-20T08:06:04;34.50;;;18.37;;
46653;SDS011;38960;51.074;17.004;2022-12-20T08:08:31;40.07;;;20.57;;
46653;SDS011;38960;51.074;17.004;2022-12-20T08:10:57;36.33;;;19.43;;
46653;SDS011;38960;51.074;17.004;2022-12-20T08:13:26;40.10;;;19.43;;
46653;SDS011;38960;51.074;17.004;2022-12-20T08:15:52;36.57;;;19.90;;
46653;SDS011;38960;51.074;17.004;2022-12-20T08:18:17;37.03;;;19.37;;
46653;SDS011;38960;51.074;17.004;2022-12-20T08:20:43;40.23;;;20.53;;
46653;SDS011;38960;51.074;17.004;2022-12-20T08:23:08;42.90;;;19.73;;
46653;SDS011;38960;51.074;17.004;2022-12-20T08:25:34;41.07;;;20.73;;
46653;SDS011;38960;51.074;17.004;2022-12-20T08:28:00;42.10;;;21.53;;
46653;SDS011;38960;51.074;17.004;2022-12-20T08:30:27;38.20;;;19.53;;
46653;SDS011;38960;51.074;17.004;2022-12-20T08:32:53;39.93;;;19.37;;
46653;SDS011;38960;51.074;17.004;2022-12-20T08:35:19;39.27;;;20.00;;
46653;SDS011;38960;51.074;17.004;2022-12-20T08:37:45;40.93;;;21.80;;
46653;SDS011;38960;51.074;17.004;2022-12-20T08:40:10;38.53;;;20.17;;
46653;SDS011;38960;51.074;17.004;2022-12-20T08:42:36;40.83;;;20.80;;
46653;SDS011;38960;51.074;17.004;2022-12-20T08:45:02;39.07;;;19.80;;
46653;SDS011;38960;51.074;17.004;2022-12-20T08:47:28;40.97;;;20.53;;
46653;SDS011;38960;51.074;17.004;2022-12-20T08:49:54;43.17;;;21.50;;
46653;SDS011;38960;51.074;17.004;2022-12-20T08:52:20;45.83;;;20.57;;
46653;SDS011;38960;51.074;17.004;2022-12-20T08:54:45;41.00;;;21.63;;
46653;SDS011;38960;51.074;17.004;2022-12-20T08:57:11;38.87;;;21.37;;
46653;SDS011;38960;51.074;17.004;2022-12-20T08:59:37;41.13;;;21.27;;
46653;SDS011;38960;51.074;17.004;2022-12-20T09:02:02;39.43;;;20.73;;
46653;SDS011;38960;51.074;17.004;2022-12-20T09:04:28;39.53;;;20.53;;
46653;SDS011;38960;51.074;17.004;2022-12-20T09:06:53;40.70;;;21.50;;
46653;SDS011;38960;51.074;17.004;2022-12-20T09:09:19;38.67;;;20.03;;
46653;SDS011;38960;51.074;17.004;2022-12-20T09:11:44;43.50;;;22.13;;
46653;SDS011;38960;51.074;17.004;2022-12-20T09:14:10;38.10;;;20.73;;
46653;SDS011;38960;51.074;17.004;2022-12-20T09:16:35;42.90;;;22.57;;
46653;SDS011;38960;51.074;17.004;2022-12-20T09:19:01;38.00;;;20.93;;
46653;SDS011;38960;51.074;17.004;2022-12-20T09:21:27;39.43;;;21.43;;
46653;SDS011;38960;51.074;17.004;2022-12-20T09:23:54;41.23;;;20.67;;
46653;SDS011;38960;51.074;17.004;2022-12-20T09:26:20;42.60;;;21.43;;
46653;SDS011;38960;51.074;17.004;2022-12-20T09:28:46;41.13;;;21.27;;
46653;SDS011;38960;51.074;17.004;2022-12-20T09:31:13;42.87;;;21.80;;
46653;SDS011;38960;51.074;17.004;2022-12-20T09:33:41;43.97;;;22.20;;
46653;SDS011;38960;51.074;17.004;2022-12-20T09:36:10;40.63;;;20.67;;
46653;SDS011;38960;51.074;17.004;2022-12-20T09:38:37;38.43;;;19.67;;
46653;SDS011;38960;51.074;17.004;2022-12-20T09:41:03;43.77;;;22.63;;
46653;SDS011;38960;51.074;17.004;2022-12-20T09:43:29;41.73;;;21.57;;
46653;SDS011;38960;51.074;17.004;2022-12-20T09:45:57;39.57;;;21.23;;
46653;SDS011;38960;51.074;17.004;2022-12-20T09:48:25;40.60;;;21.87;;
46653;SDS011;38960;51.074;17.004;2022-12-20T09:56:21;41.33;;;20.97;;
46653;SDS011;38960;51.074;17.004;2022-12-20T10:01:21;36.33;;;19.97;;
46653;SDS011;38960;51.074;17.004;2022-12-20T10:03:48;38.43;;;19.90;;
46653;SDS011;38960;51.074;17.004;2022-12-20T10:08:58;40.37;;;20.90;;
46653;SDS011;38960;51.074;17.004;2022-12-20T10:14:27;39.33;;;19.73;;
46653;SDS011;38960;51.074;17.004;2022-12-20T10:17:15;41.40;;;21.07;;
46653;SDS011;38960;51.074;17.004;2022-12-20T10:20:06;40.27;;;20.80;;
46653;SDS011;38960;51.074;17.004;2022-12-20T10:25:23;43.57;;;22.03;;
46653;SDS011;38960;51.074;17.004;2022-12-20T10:27:54;38.17;;;21.13;;
46653;SDS011;38960;51.074;17.004;2022-12-20T10:30:22;38.87;;;21.63;;
46653;SDS011;38960;51.074;17.004;2022-12-20T10:32:50;42.87;;;22.20;;
46653;SDS011;38960;51.074;17.004;2022-12-20T10:35:29;46.20;;;23.70;;
46653;SDS011;38960;51.074;17.004;2022-12-20T10:38:05;63.90;;;29.25;;
46653;SDS011;38960;51.074;17.004;2022-12-20T10:40:38;71.97;;;32.17;;
46653;SDS011;38960;51.074;17.004;2022-12-20T10:43:15;55.70;;;27.13;;
46653;SDS011;38960;51.074;17.004;2022-12-20T10:45:44;51.43;;;24.33;;
46653;SDS011;38960;51.074;17.004;2022-12-20T10:48:34;54.63;;;27.70;;
46653;SDS011;38960;51.074;17.004;2022-12-20T10:51:03;96.90;;;42.30;;
46653;SDS011;38960;51.074;17.004;2022-12-20T10:53:50;105.17;;;43.93;;
46653;SDS011;38960;51.074;17.004;2022-12-20T10:56:27;72.83;;;34.60;;
46653;SDS011;38960;51.074;17.004;2022-12-20T11:01:23;64.07;;;31.10;;
46653;SDS011;38960;51.074;17.004;2022-12-20T11:03:55;59.70;;;30.20;;
46653;SDS011;38960;51.074;17.004;2022-12-20T11:06:29;60.17;;;29.03;;
46653;SDS011;38960;51.074;17.004;2022-12-20T11:12:01;53.30;;;27.10;;
46653;SDS011;38960;51.074;17.004;2022-12-20T11:14:27;72.57;;;34.33;;
46653;SDS011;38960;51.074;17.004;2022-12-20T11:16:54;70.10;;;31.80;;
46653;SDS011;38960;51.074;17.004;2022-12-20T11:22:17;53.90;;;27.57;;
46653;SDS011;38960;51.074;17.004;2022-12-20T11:27:54;66.10;;;31.80;;
46653;SDS011;38960;51.074;17.004;2022-12-20T11:30:29;54.43;;;27.93;;
46653;SDS011;38960;51.074;17.004;2022-12-20T11:39:29;58.70;;;28.55;;
46653;SDS011;38960;51.074;17.004;2022-12-20T11:42:08;50.95;;;26.75;;
46653;SDS011;38960;51.074;17.004;2022-12-20T11:45:01;53.27;;;28.20;;
46653;SDS011;38960;51.074;17.004;2022-12-20T11:52:49;52.77;;;23.73;;
46653;SDS011;38960;51.074;17.004;2022-12-20T11:55:18;42.70;;;21.87;;
46653;SDS011;38960;51.074;17.004;2022-12-20T12:00:25;46.23;;;23.60;;
46653;SDS011;38960;51.074;17.004;2022-12-20T12:05:31;46.77;;;24.73;;
46653;SDS011;38960;51.074;17.004;2022-12-20T12:08:06;43.67;;;23.17;;
46653;SDS011;38960;51.074;17.004;2022-12-20T12:10:38;45.43;;;24.43;;
46653;SDS011;38960;51.074;17.004;2022-12-20T12:13:15;43.00;;;22.10;;
46653;SDS011;38960;51.074;17.004;2022-12-20T12:18:36;42.20;;;22.33;;
46653;SDS011;38960;51.074;17.004;2022-12-20T12:21:22;42.17;;;22.17;;
46653;SDS011;38960;51.074;17.004;2022-12-20T12:26:54;40.40;;;21.83;;
46653;SDS011;38960;51.074;17.004;2022-12-20T12:29:20;44.47;;;22.10;;
46653;SDS011;38960;51.074;17.004;2022-12-20T12:31:52;51.70;;;24.97;;
46653;SDS011;38960;51.074;17.004;2022-12-20T12:34:33;68.60;;;32.67;;
46653;SDS011;38960;51.074;17.004;2022-12-20T12:37:23;49.00;;;27.50;;
46653;SDS011;38960;51.074;17.004;2022-12-20T12:45:04;51.10;;;24.73;;
46653;SDS011;38960;51.074;17.004;2022-12-20T12:50:24;49.23;;;26.27;;
46653;SDS011;38960;51.074;17.004;2022-12-20T12:53:03;46.83;;;22.23;;
46653;SDS011;38960;51.074;17.004;2022-12-20T12:55:51;41.53;;;23.10;;
46653;SDS011;38960;51.074;17.004;2022-12-20T13:00:53;55.50;;;28.80;;
46653;SDS011;38960;51.074;17.004;2022-12-20T13:11:31;40.90;;;22.37;;
46653;SDS011;38960;51.074;17.004;2022-12-20T13:38:00;61.70;;;28.40;;
46653;SDS011;38960;51.074;17.004;2022-12-20T13:40:59;60.93;;;30.67;;
46653;SDS011;38960;51.074;17.004;2022-12-20T13:43:27;64.70;;;32.33;;
46653;SDS011;38960;51.074;17.004;2022-12-20T13:51:21;51.13;;;25.83;;
46653;SDS011;38960;51.074;17.004;2022-12-20T13:53:50;48.70;;;25.27;;
46653;SDS011;38960;51.074;17.004;2022-12-20T13:58:52;45.75;;;26.55;;
46653;SDS011;38960;51.074;17.004;2022-12-20T14:01:19;48.73;;;25.57;;
46653;SDS011;38960;51.074;17.004;2022-12-20T14:03:47;45.03;;;24.73;;
46653;SDS011;38960;51.074;17.004;2022-12-20T14:06:13;47.23;;;23.23;;
46653;SDS011;38960;51.074;17.004;2022-12-20T14:08:44;51.07;;;25.20;;
46653;SDS011;38960;51.074;17.004;2022-12-20T14:13:38;42.03;;;23.33;;
46653;SDS011;38960;51.074;17.004;2022-12-20T14:16:14;45.90;;;24.50;;
46653;SDS011;38960;51.074;17.004;2022-12-20T14:18:40;45.27;;;23.80;;
46653;SDS011;38960;51.074;17.004;2022-12-20T14:21:06;46.00;;;24.60;;
46653;SDS011;38960;51.074;17.004;2022-12-20T14:26:00;44.30;;;24.77;;
46653;SDS011;38960;51.074;17.004;2022-12-20T14:30:55;46.53;;;23.77;;
46653;SDS011;38960;51.074;17.004;2022-12-20T14:35:54;45.00;;;23.92;;
46653;SDS011;38960;51.074;17.004;2022-12-20T14:38:20;49.00;;;27.40;;
46653;SDS011;38960;51.074;17.004;2022-12-20T14:40:47;47.53;;;25.47;;
46653;SDS011;38960;51.074;17.004;2022-12-20T14:43:23;51.10;;;27.37;;
46653;SDS011;38960;51.074;17.004;2022-12-20T14:46:05;58.47;;;29.37;;
46653;SDS011;38960;51.074;17.004;2022-12-20T14:48:41;57.20;;;28.77;;
46653;SDS011;38960;51.074;17.004;2022-12-20T14:51:07;43.47;;;23.93;;
46653;SDS011;38960;51.074;17.004;2022-12-20T14:53:33;72.43;;;34.93;;
46653;SDS011;38960;51.074;17.004;2022-12-20T14:55:58;45.20;;;24.10;;
46653;SDS011;38960;51.074;17.004;2022-12-20T14:58:28;47.53;;;24.03;;
46653;SDS011;38960;51.074;17.004;2022-12-20T15:03:28;45.00;;;24.20;;
46653;SDS011;38960;51.074;17.004;2022-12-20T15:05:57;46.97;;;23.83;;
46653;SDS011;38960;51.074;17.004;2022-12-20T15:08:31;57.97;;;29.50;;
46653;SDS011;38960;51.074;17.004;2022-12-20T15:13:44;47.03;;;24.73;;
46653;SDS011;38960;51.074;17.004;2022-12-20T15:18:47;51.67;;;25.73;;
46653;SDS011;38960;51.074;17.004;2022-12-20T15:21:17;45.73;;;25.20;;
46653;SDS011;38960;51.074;17.004;2022-12-20T15:23:56;52.27;;;27.77;;
46653;SDS011;38960;51.074;17.004;2022-12-20T15:26:25;47.10;;;25.00;;
46653;SDS011;38960;51.074;17.004;2022-12-20T15:28:51;48.27;;;27.47;;
46653;SDS011;38960;51.074;17.004;2022-12-20T15:31:18;60.73;;;30.10;;
46653;SDS011;38960;51.074;17.004;2022-12-20T15:33:45;51.80;;;27.37;;
46653;SDS011;38960;51.074;17.004;2022-12-20T15:36:18;49.47;;;25.57;;
46653;SDS011;38960;51.074;17.004;2022-12-20T15:38:53;45.15;;;26.25;;
46653;SDS011;38960;51.074;17.004;2022-12-20T15:41:24;52.23;;;27.03;;
46653;SDS011;38960;51.074;17.004;2022-12-20T15:43:58;48.63;;;26.90;;
46653;SDS011;38960;51.074;17.004;2022-12-20T15:46:29;54.60;;;27.60;;
46653;SDS011;38960;51.074;17.004;2022-12-20T15:48:55;55.03;;;27.63;;
46653;SDS011;38960;51.074;17.004;2022-12-20T15:53:57;51.03;;;26.20;;
46653;SDS011;38960;51.074;17.004;2022-12-20T15:56:24;45.50;;;23.87;;
46653;SDS011;38960;51.074;17.004;2022-12-20T15:58:51;44.10;;;23.90;;
46653;SDS011;38960;51.074;17.004;2022-12-20T16:01:20;45.33;;;26.10;;
46653;SDS011;38960;51.074;17.004;2022-12-20T16:03:48;50.40;;;25.00;;
46653;SDS011;38960;51.074;17.004;2022-12-20T16:06:14;52.33;;;26.70;;
46653;SDS011;38960;51.074;17.004;2022-12-20T16:08:40;48.03;;;25.33;;
46653;SDS011;38960;51.074;17.004;2022-12-20T16:11:06;48.43;;;24.47;;
46653;SDS011;38960;51.074;17.004;2022-12-20T16:13:47;49.10;;;24.80;;
46653;SDS011;38960;51.074;17.004;2022-12-20T16:16:16;49.80;;;25.80;;
46653;SDS011;38960;51.074;17.004;2022-12-20T16:18:43;48.10;;;24.10;;
46653;SDS011;38960;51.074;17.004;2022-12-20T16:21:25;54.90;;;25.87;;
46653;SDS011;38960;51.074;17.004;2022-12-20T16:23:52;77.50;;;39.27;;
46653;SDS011;38960;51.074;17.004;2022-12-20T16:26:19;59.20;;;30.57;;
46653;SDS011;38960;51.074;17.004;2022-12-20T16:28:46;51.47;;;26.60;;
46653;SDS011;38960;51.074;17.004;2022-12-20T16:31:20;48.50;;;25.33;;
46653;SDS011;38960;51.074;17.004;2022-12-20T16:33:48;47.93;;;24.50;;
46653;SDS011;38960;51.074;17.004;2022-12-20T16:36:14;49.30;;;23.73;;
46653;SDS011;38960;51.074;17.004;2022-12-20T16:38:40;46.30;;;23.73;;
46653;SDS011;38960;51.074;17.004;2022-12-20T16:41:16;39.43;;;22.83;;
46653;SDS011;38960;51.074;17.004;2022-12-20T16:43:42;49.53;;;24.47;;
46653;SDS011;38960;51.074;17.004;2022-12-20T16:46:12;44.87;;;23.60;;
46653;SDS011;38960;51.074;17.004;2022-12-20T16:53:52;69.20;;;34.60;;
46653;SDS011;38960;51.074;17.004;2022-12-20T16:56:19;53.97;;;29.00;;
46653;SDS011;38960;51.074;17.004;2022-12-20T16:58:45;53.70;;;28.30;;